createdAt,value
2022-08-07T00:00:03.439Z,998.40
2022-08-07T00:01:44.439Z,998.39
2022-08-07T00:02:37.060Z,998.45
2022-08-07T00:03:03.279Z,998.47
2022-08-07T00:04:03.389Z,998.50
2022-08-07T00:05:04.217Z,998.49
2022-08-07T00:06:02.231Z,998.45
2022-08-07T00:07:05.107Z,998.45
2022-08-07T00:08:03.209Z,998.51
2022-08-07T00:09:16.816Z,998.52
2022-08-07T00:10:25.498Z,998.46
2022-08-07T00:11:06.389Z,998.49
2022-08-07T00:12:02.179Z,998.48
2022-08-07T00:13:03.161Z,998.49
2022-08-07T00:14:02.154Z,998.53
2022-08-07T00:15:02.404Z,998.44
2022-08-07T00:16:02.140Z,998.42
2022-08-07T00:17:02.627Z,998.44
2022-08-07T00:18:02.114Z,998.38
2022-08-07T00:19:02.105Z,998.40
2022-08-07T00:20:03.258Z,998.45
2022-08-07T00:21:03.473Z,998.41
2022-08-07T00:22:03.319Z,998.39
2022-08-07T00:23:02.045Z,998.36
2022-08-07T00:24:02.095Z,998.44
2022-08-07T00:25:02.754Z,998.38
2022-08-07T00:26:13.277Z,998.44
2022-08-07T00:27:07.477Z,998.38
2022-08-07T00:28:03.017Z,998.37
2022-08-07T00:29:02.012Z,998.36
2022-08-07T00:30:02.011Z,998.37
2022-08-07T00:31:01.984Z,998.37
2022-08-07T00:32:01.976Z,998.32
2022-08-07T00:33:33.909Z,998.27
2022-08-07T00:34:01.958Z,998.31
2022-08-07T00:35:01.941Z,998.25
2022-08-07T00:36:01.950Z,998.24
2022-08-07T00:37:01.950Z,998.25
2022-08-07T00:38:01.917Z,998.29
2022-08-07T00:39:01.960Z,998.24
2022-08-07T00:40:01.908Z,998.21
2022-08-07T00:41:01.893Z,998.30
2022-08-07T00:42:05.054Z,998.24
2022-08-07T00:43:01.875Z,998.24
2022-08-07T00:44:02.997Z,998.31
2022-08-07T00:45:02.845Z,998.25
2022-08-07T00:46:02.241Z,998.23
2022-08-07T00:47:01.837Z,998.27
2022-08-07T00:48:07.636Z,998.21
2022-08-07T00:49:02.083Z,998.27
2022-08-07T00:50:20.775Z,998.24
2022-08-07T00:51:02.990Z,998.30
2022-08-07T00:52:01.823Z,998.31
2022-08-07T00:53:01.791Z,998.30
2022-08-07T00:54:01.747Z,998.26
2022-08-07T00:55:04.646Z,998.24
2022-08-07T00:56:03.935Z,998.27
2022-08-07T00:57:01.818Z,998.26
2022-08-07T00:58:01.714Z,998.28
2022-08-07T00:59:02.720Z,998.26
2022-08-07T01:00:01.701Z,998.28
2022-08-07T01:01:01.755Z,998.27
2022-08-07T01:02:01.742Z,998.26
2022-08-07T01:03:01.691Z,998.21
2022-08-07T01:04:01.644Z,998.14
2022-08-07T01:05:01.661Z,998.18
2022-08-07T01:06:01.640Z,998.14
2022-08-07T01:07:01.622Z,998.13
2022-08-07T01:08:01.645Z,998.12
2022-08-07T01:09:01.637Z,998.09
2022-08-07T01:10:05.936Z,998.14
2022-08-07T01:12:04.775Z,998.07
2022-08-07T01:12:10.079Z,998.10
2022-08-07T01:13:02.763Z,998.14
2022-08-07T01:14:01.579Z,998.07
2022-08-07T01:15:03.887Z,998.04
2022-08-07T01:16:05.900Z,998.10
2022-08-07T01:17:04.252Z,998.02
2022-08-07T01:18:01.533Z,998.07
2022-08-07T01:19:01.548Z,998.04
2022-08-07T01:20:01.521Z,998.06
2022-08-07T01:21:01.498Z,998.07
2022-08-07T01:22:03.205Z,998.11
2022-08-07T01:23:12.028Z,998.07
2022-08-07T01:24:01.497Z,998.05
2022-08-07T01:25:02.412Z,998.04
2022-08-07T01:26:03.445Z,998.03
2022-08-07T01:27:01.473Z,998.03
2022-08-07T01:28:01.443Z,998.05
2022-08-07T01:29:01.423Z,998.09
2022-08-07T01:30:01.421Z,998.08
2022-08-07T01:31:01.403Z,998.07
2022-08-07T01:32:01.418Z,998.06
2022-08-07T01:33:02.201Z,998.04
2022-08-07T01:34:01.411Z,998.04
2022-08-07T01:35:01.380Z,998.08
2022-08-07T01:36:06.053Z,998.03
2022-08-07T01:37:01.355Z,998.05
2022-08-07T01:38:01.340Z,997.98
2022-08-07T01:39:01.397Z,998.06
2022-08-07T01:40:01.352Z,998.01
2022-08-07T01:41:01.299Z,998.06
2022-08-07T01:42:36.618Z,998.02
2022-08-07T01:43:03.354Z,998.03
2022-08-07T01:44:01.686Z,998.03
2022-08-07T01:45:01.286Z,998.02
2022-08-07T01:46:01.251Z,998.04
2022-08-07T01:48:16.411Z,998.02
2022-08-07T01:48:21.064Z,997.98
2022-08-07T01:49:02.451Z,998.00
2022-08-07T01:50:01.238Z,998.03
2022-08-07T01:51:24.418Z,998.04
2022-08-07T01:52:04.886Z,997.96
2022-08-07T01:53:01.181Z,997.92
2022-08-07T01:54:12.706Z,997.98
2022-08-07T01:55:02.166Z,997.93
2022-08-07T01:56:01.166Z,997.97
2022-08-07T01:57:02.149Z,997.92
2022-08-07T01:58:06.718Z,997.98
2022-08-07T01:59:02.148Z,997.96
2022-08-07T02:00:01.125Z,997.95
2022-08-07T02:01:25.708Z,997.94
2022-08-07T02:02:04.378Z,997.98
2022-08-07T02:03:19.249Z,997.94
2022-08-07T02:04:02.159Z,998.01
2022-08-07T02:05:01.057Z,998.03
2022-08-07T02:06:02.077Z,998.00
2022-08-07T02:07:01.050Z,997.99
2022-08-07T02:08:01.097Z,997.98
2022-08-07T02:09:01.034Z,997.96
2022-08-07T02:10:01.021Z,997.98
2022-08-07T02:11:01.011Z,997.97
2022-08-07T02:12:04.825Z,997.98
2022-08-07T02:13:01.128Z,998.01
2022-08-07T02:14:02.639Z,998.03
2022-08-07T02:15:01.072Z,998.01
2022-08-07T02:16:00.967Z,998.01
2022-08-07T02:17:00.950Z,997.99
2022-08-07T02:18:00.939Z,997.95
2022-08-07T02:19:00.958Z,997.94
2022-08-07T02:20:05.551Z,997.98
2022-08-07T02:21:06.465Z,998.01
2022-08-07T02:22:00.912Z,997.96
2022-08-07T02:23:00.917Z,997.97
2022-08-07T02:24:01.610Z,997.93
2022-08-07T02:25:00.879Z,998.01
2022-08-07T02:26:30.460Z,998.01
2022-08-07T02:27:02.700Z,998.02
2022-08-07T02:28:00.851Z,998.00
2022-08-07T02:29:00.846Z,997.97
2022-08-07T02:30:03.989Z,997.99
2022-08-07T02:31:27.963Z,997.94
2022-08-07T02:32:01.814Z,997.94
2022-08-07T02:33:09.553Z,997.95
2022-08-07T02:34:03.462Z,997.98
2022-08-07T02:35:01.131Z,997.94
2022-08-07T02:36:30.568Z,997.95
2022-08-07T02:37:01.770Z,997.96
2022-08-07T02:38:01.753Z,997.92
2022-08-07T02:39:00.806Z,997.96
2022-08-07T02:40:02.136Z,997.95
2022-08-07T02:41:01.770Z,997.92
2022-08-07T02:42:00.731Z,997.91
2022-08-07T02:43:00.698Z,997.93
2022-08-07T02:44:00.680Z,997.93
2022-08-07T02:45:00.678Z,997.93
2022-08-07T02:46:02.752Z,997.89
2022-08-07T02:47:00.857Z,997.87
2022-08-07T02:48:01.644Z,997.89
2022-08-07T02:49:03.192Z,997.94
2022-08-07T02:50:00.676Z,997.97
2022-08-07T02:51:00.632Z,997.97
2022-08-07T02:52:00.634Z,997.89
2022-08-07T02:53:00.822Z,997.94
2022-08-07T02:54:00.585Z,997.98
2022-08-07T02:55:00.577Z,997.95
2022-08-07T02:56:04.195Z,997.93
2022-08-07T02:57:00.571Z,997.94
2022-08-07T02:58:00.545Z,997.92
2022-08-07T02:59:00.544Z,997.96
2022-08-07T03:00:01.206Z,997.92
2022-08-07T03:01:00.587Z,997.93
2022-08-07T03:02:01.343Z,997.90
2022-08-07T03:03:00.529Z,997.90
2022-08-07T03:04:03.214Z,997.94
2022-08-07T03:05:04.900Z,997.97
2022-08-07T03:06:00.472Z,997.90
2022-08-07T03:07:03.426Z,997.92
2022-08-07T03:08:08.151Z,997.92
2022-08-07T03:09:01.473Z,997.85
2022-08-07T03:10:00.435Z,997.83
2022-08-07T03:11:00.423Z,997.86
2022-08-07T03:12:02.906Z,997.85
2022-08-07T03:13:00.402Z,997.81
2022-08-07T03:14:01.912Z,997.83
2022-08-07T03:15:02.395Z,997.83
2022-08-07T03:16:01.373Z,997.84
2022-08-07T03:17:00.365Z,997.81
2022-08-07T03:18:00.357Z,997.85
2022-08-07T03:19:00.349Z,997.85
2022-08-07T03:20:00.346Z,997.82
2022-08-07T03:21:00.322Z,997.89
2022-08-07T03:22:00.317Z,997.83
2022-08-07T03:23:00.307Z,997.81
2022-08-07T03:24:20.298Z,997.84
2022-08-07T03:25:02.331Z,997.83
2022-08-07T03:26:00.275Z,997.85
2022-08-07T03:27:00.277Z,997.85
2022-08-07T03:28:09.462Z,997.89
2022-08-07T03:29:01.245Z,997.82
2022-08-07T03:30:00.254Z,997.86
2022-08-07T03:31:00.227Z,997.82
2022-08-07T03:32:00.239Z,997.85
2022-08-07T03:33:01.019Z,997.83
2022-08-07T03:34:00.190Z,997.87
2022-08-07T03:35:16.918Z,997.79
2022-08-07T03:36:01.178Z,997.83
2022-08-07T03:37:00.190Z,997.81
2022-08-07T03:38:01.179Z,997.82
2022-08-07T03:39:05.602Z,997.85
2022-08-07T03:40:15.127Z,997.82
2022-08-07T03:41:02.180Z,997.83
2022-08-07T03:42:00.703Z,997.81
2022-08-07T03:43:00.114Z,997.82
2022-08-07T03:44:00.096Z,997.79
2022-08-07T03:45:00.089Z,997.84
2022-08-07T03:46:00.098Z,997.83
2022-08-07T03:47:13.821Z,997.83
2022-08-07T03:48:00.087Z,997.83
2022-08-07T03:49:02.753Z,997.79
2022-08-07T03:50:00.048Z,997.81
2022-08-07T03:51:00.039Z,997.81
2022-08-07T03:52:01.225Z,997.82
2022-08-07T03:53:00.024Z,997.81
2022-08-07T03:54:33.925Z,997.81
2022-08-07T03:55:06.868Z,997.83
2022-08-07T03:56:04.307Z,997.79
2022-08-07T03:57:07.220Z,997.80
2022-08-07T03:59:05.551Z,997.86
2022-08-07T03:59:09.785Z,997.84
2022-08-07T04:00:01.760Z,997.84
2022-08-07T04:01:00.518Z,997.89
2022-08-07T04:01:59.987Z,997.86
2022-08-07T04:02:59.909Z,997.89
2022-08-07T04:03:59.904Z,997.86
2022-08-07T04:04:59.899Z,997.87
2022-08-07T04:05:59.979Z,997.83
2022-08-07T04:07:00.089Z,997.85
2022-08-07T04:07:59.858Z,997.83
2022-08-07T04:08:59.868Z,997.76
2022-08-07T04:09:59.835Z,997.88
2022-08-07T04:12:20.892Z,997.85
2022-08-07T04:12:26.860Z,997.82
2022-08-07T04:13:00.806Z,997.87
2022-08-07T04:14:10.207Z,997.85
2022-08-07T04:15:00.784Z,997.89
2022-08-07T04:15:59.859Z,997.86
2022-08-07T04:16:59.768Z,997.83
2022-08-07T04:18:58.578Z,997.86
2022-08-07T04:19:03.832Z,997.83
2022-08-07T04:20:01.218Z,997.85
2022-08-07T04:20:59.742Z,997.86
2022-08-07T04:22:08.681Z,997.90
2022-08-07T04:23:01.806Z,997.90
2022-08-07T04:24:07.358Z,997.93
2022-08-07T04:25:00.997Z,997.92
2022-08-07T04:25:59.686Z,997.94
2022-08-07T04:26:59.684Z,997.96
2022-08-07T04:28:01.013Z,997.98
2022-08-07T04:28:59.654Z,997.94
2022-08-07T04:30:02.028Z,997.88
2022-08-07T04:30:59.644Z,997.94
2022-08-07T04:32:03.202Z,997.88
2022-08-07T04:32:59.636Z,997.92
2022-08-07T04:33:59.609Z,997.89
2022-08-07T04:34:59.601Z,997.90
2022-08-07T04:35:59.587Z,997.95
2022-08-07T04:36:59.591Z,997.92
2022-08-07T04:38:03.697Z,997.98
2022-08-07T04:38:59.633Z,997.97
2022-08-07T04:39:59.571Z,997.92
2022-08-07T04:40:59.549Z,997.94
2022-08-07T04:41:59.571Z,997.86
2022-08-07T04:43:02.159Z,997.95
2022-08-07T04:44:12.689Z,997.94
2022-08-07T04:45:03.313Z,997.99
2022-08-07T04:46:02.023Z,997.99
2022-08-07T04:47:04.967Z,997.96
2022-08-07T04:48:04.832Z,997.96
2022-08-07T04:49:01.611Z,997.99
2022-08-07T04:50:04.549Z,997.93
2022-08-07T04:51:00.467Z,997.95
2022-08-07T04:52:00.050Z,998.11
2022-08-07T04:52:59.425Z,998.03
2022-08-07T04:54:05.207Z,997.96
2022-08-07T04:55:00.414Z,998.01
2022-08-07T04:58:11.259Z,998.06
2022-08-07T04:58:12.791Z,998.01
2022-08-07T04:58:14.864Z,998.06
2022-08-07T05:00:08.941Z,998.06
2022-08-07T05:00:12.396Z,998.06
2022-08-07T05:00:59.426Z,998.05
2022-08-07T05:01:59.367Z,998.15
2022-08-07T05:02:59.335Z,998.08
2022-08-07T05:04:06.421Z,998.05
2022-08-07T05:04:59.321Z,998.02
2022-08-07T05:05:59.306Z,998.10
2022-08-07T05:06:59.307Z,998.12
2022-08-07T05:07:59.290Z,998.06
2022-08-07T05:09:01.918Z,998.04
2022-08-07T05:09:59.266Z,998.02
2022-08-07T05:11:02.552Z,998.08
2022-08-07T05:12:02.609Z,998.03
2022-08-07T05:13:09.871Z,998.06
2022-08-07T05:14:55.988Z,998.03
2022-08-07T05:15:03.463Z,998.09
2022-08-07T05:15:59.215Z,998.01
2022-08-07T05:17:00.200Z,998.00
2022-08-07T05:18:00.648Z,998.00
2022-08-07T05:18:59.177Z,998.01
2022-08-07T05:19:59.198Z,998.04
2022-08-07T05:20:59.161Z,998.06
2022-08-07T05:22:01.783Z,998.08
2022-08-07T05:22:59.156Z,998.16
2022-08-07T05:23:59.146Z,998.16
2022-08-07T05:24:59.556Z,998.12
2022-08-07T05:26:15.614Z,998.14
2022-08-07T05:27:00.125Z,998.19
2022-08-07T05:28:02.554Z,998.13
2022-08-07T05:29:00.088Z,998.12
2022-08-07T05:29:59.081Z,998.13
2022-08-07T05:30:59.092Z,998.11
2022-08-07T05:31:59.067Z,998.08
2022-08-07T05:32:59.060Z,998.09
2022-08-07T05:34:04.431Z,998.10
2022-08-07T05:35:00.033Z,998.14
2022-08-07T05:35:59.033Z,998.13
2022-08-07T05:36:59.018Z,998.12
2022-08-07T05:38:08.581Z,998.09
2022-08-07T05:40:05.237Z,998.07
2022-08-07T05:40:14.282Z,998.11
2022-08-07T05:41:00.022Z,998.14
2022-08-07T05:42:01.803Z,998.19
2022-08-07T05:42:58.970Z,998.10
2022-08-07T05:44:12.518Z,998.08
2022-08-07T05:45:14.179Z,998.15
2022-08-07T05:45:59.949Z,998.21
2022-08-07T05:47:00.194Z,998.17
2022-08-07T05:48:01.346Z,998.20
2022-08-07T05:48:59.559Z,998.16
2022-08-07T05:49:58.919Z,998.14
2022-08-07T05:50:58.933Z,998.17
2022-08-07T05:51:58.880Z,998.17
2022-08-07T05:52:58.914Z,998.14
2022-08-07T05:54:13.734Z,998.13
2022-08-07T05:55:06.771Z,998.17
2022-08-07T05:56:02.243Z,998.12
2022-08-07T05:56:58.951Z,998.10
2022-08-07T05:57:58.853Z,998.16
2022-08-07T05:58:58.889Z,998.22
2022-08-07T05:59:58.829Z,998.15
2022-08-07T06:00:58.803Z,998.11
2022-08-07T06:01:59.943Z,998.18
2022-08-07T06:02:58.865Z,998.22
2022-08-07T06:04:01.050Z,998.20
2022-08-07T06:04:58.777Z,998.12
2022-08-07T06:05:58.836Z,998.16
2022-08-07T06:07:03.617Z,998.15
2022-08-07T06:08:14.683Z,998.07
2022-08-07T06:08:59.759Z,998.16
2022-08-07T06:10:05.526Z,998.18
2022-08-07T06:11:03.738Z,998.16
2022-08-07T06:11:59.585Z,998.13
2022-08-07T06:12:58.800Z,998.12
2022-08-07T06:14:13.095Z,998.17
2022-08-07T06:15:05.667Z,998.13
2022-08-07T06:15:59.735Z,998.11
2022-08-07T06:16:58.719Z,998.11
2022-08-07T06:17:59.644Z,998.15
2022-08-07T06:18:58.665Z,998.06
2022-08-07T06:20:04.020Z,998.05
2022-08-07T06:22:14.460Z,998.07
2022-08-07T06:22:15.158Z,998.07
2022-08-07T06:23:24.940Z,998.12
2022-08-07T06:24:46.346Z,998.06
2022-08-07T06:25:01.531Z,998.09
2022-08-07T06:25:58.641Z,998.07
2022-08-07T06:26:58.630Z,998.02
2022-08-07T06:28:01.936Z,998.02
2022-08-07T06:28:58.965Z,998.01
2022-08-07T06:29:58.545Z,997.98
2022-08-07T06:30:58.675Z,997.90
2022-08-07T06:31:58.534Z,997.94
2022-08-07T06:32:58.518Z,997.95
2022-08-07T06:34:30.592Z,997.95
2022-08-07T06:34:58.508Z,997.91
2022-08-07T06:36:06.485Z,997.89
2022-08-07T06:36:59.496Z,997.89
2022-08-07T06:37:58.487Z,997.92
2022-08-07T06:40:13.398Z,997.98
2022-08-07T06:40:17.882Z,997.91
2022-08-07T06:40:59.489Z,997.91
2022-08-07T06:42:02.839Z,997.93
2022-08-07T06:42:58.437Z,997.89
2022-08-07T06:44:01.266Z,997.91
2022-08-07T06:44:58.424Z,997.91
2022-08-07T06:46:00.992Z,997.92
2022-08-07T06:47:09.818Z,997.89
2022-08-07T06:47:59.883Z,997.90
2022-08-07T06:48:58.405Z,997.91
2022-08-07T06:49:59.044Z,997.87
2022-08-07T06:50:58.367Z,997.82
2022-08-07T06:52:02.874Z,997.86
2022-08-07T06:52:59.364Z,997.86
2022-08-07T06:55:28.553Z,997.86
2022-08-07T06:55:33.325Z,997.80
2022-08-07T06:56:01.291Z,997.83
2022-08-07T06:56:58.348Z,997.80
2022-08-07T06:57:59.256Z,997.77
2022-08-07T07:00:13.649Z,997.78
2022-08-07T07:00:17.473Z,997.74
2022-08-07T07:00:59.304Z,997.78
2022-08-07T07:01:58.445Z,997.77
2022-08-07T07:03:00.788Z,997.71
2022-08-07T07:04:28.376Z,997.75
2022-08-07T07:05:00.253Z,997.72
2022-08-07T07:06:05.199Z,997.69
2022-08-07T07:07:00.972Z,997.75
2022-08-07T07:07:59.124Z,997.70
2022-08-07T07:09:00.225Z,997.73
2022-08-07T07:09:58.239Z,997.69
2022-08-07T07:10:59.047Z,997.75
2022-08-07T07:12:08.217Z,997.67
2022-08-07T07:12:59.193Z,997.67
2022-08-07T07:14:02.216Z,997.70
2022-08-07T07:14:58.191Z,997.68
2022-08-07T07:15:58.159Z,997.66
2022-08-07T07:16:58.157Z,997.74
2022-08-07T07:17:58.195Z,997.69
2022-08-07T07:18:58.154Z,997.69
2022-08-07T07:19:59.145Z,997.74
2022-08-07T07:20:59.110Z,997.71
2022-08-07T07:22:12.010Z,997.66
2022-08-07T07:24:10.936Z,997.67
2022-08-07T07:24:11.128Z,997.71
2022-08-07T07:25:03.088Z,997.65
2022-08-07T07:26:32.592Z,997.69
2022-08-07T07:26:59.058Z,997.72
2022-08-07T07:28:02.791Z,997.67
2022-08-07T07:29:38.425Z,997.71
2022-08-07T07:30:08.941Z,997.70
2022-08-07T07:30:59.015Z,997.70
2022-08-07T07:31:58.033Z,997.71
2022-08-07T07:32:58.029Z,997.65
2022-08-07T07:33:58.060Z,997.69
2022-08-07T07:34:58.008Z,997.66
2022-08-07T07:36:12.627Z,997.58
2022-08-07T07:37:05.451Z,997.59
2022-08-07T07:38:02.710Z,997.57
2022-08-07T07:38:59.022Z,997.65
2022-08-07T07:39:57.997Z,997.64
2022-08-07T07:41:01.886Z,997.58
2022-08-07T07:42:09.020Z,997.60
2022-08-07T07:43:11.606Z,997.61
2022-08-07T07:44:17.258Z,997.66
2022-08-07T07:44:58.924Z,997.57
2022-08-07T07:46:40.314Z,997.55
2022-08-07T07:47:12.080Z,997.53
2022-08-07T07:47:59.897Z,997.52
2022-08-07T07:49:00.237Z,997.53
2022-08-07T07:50:35.015Z,997.48
2022-08-07T07:50:58.885Z,997.55
2022-08-07T07:51:59.768Z,997.58
2022-08-07T07:52:57.825Z,997.56
2022-08-07T07:53:57.817Z,997.57
2022-08-07T07:54:57.804Z,997.52
2022-08-07T07:56:00.863Z,997.51
2022-08-07T07:56:57.793Z,997.47
2022-08-07T07:57:58.813Z,997.46
2022-08-07T07:58:57.769Z,997.49
2022-08-07T07:59:57.776Z,997.51
2022-08-07T08:00:57.780Z,997.50
2022-08-07T08:02:04.097Z,997.46
2022-08-07T08:03:04.827Z,997.43
2022-08-07T08:04:05.827Z,997.43
2022-08-07T08:04:59.163Z,997.45
2022-08-07T08:05:57.705Z,997.46
2022-08-07T08:07:00.661Z,997.41
2022-08-07T08:08:00.848Z,997.35
2022-08-07T08:08:57.677Z,997.40
2022-08-07T08:10:04.919Z,997.37
2022-08-07T08:10:57.660Z,997.40
2022-08-07T08:12:02.506Z,997.35
2022-08-07T08:12:59.718Z,997.46
2022-08-07T08:13:57.679Z,997.34
2022-08-07T08:14:57.629Z,997.37
2022-08-07T08:16:00.730Z,997.33
2022-08-07T08:16:57.630Z,997.43
2022-08-07T08:17:58.847Z,997.34
2022-08-07T08:19:00.309Z,997.36
2022-08-07T08:20:18.887Z,997.43
2022-08-07T08:20:58.560Z,997.38
2022-08-07T08:22:03.373Z,997.36
2022-08-07T08:22:58.556Z,997.32
2022-08-07T08:23:57.576Z,997.28
2022-08-07T08:25:18.630Z,997.33
2022-08-07T08:26:03.369Z,997.31
2022-08-07T08:26:58.520Z,997.35
2022-08-07T08:28:03.567Z,997.38
2022-08-07T08:28:58.518Z,997.34
2022-08-07T08:29:57.485Z,997.34
2022-08-07T08:30:57.514Z,997.32
2022-08-07T08:31:58.573Z,997.30
2022-08-07T08:32:58.454Z,997.30
2022-08-07T08:33:57.915Z,997.29
2022-08-07T08:34:58.413Z,997.25
2022-08-07T08:35:57.459Z,997.28
2022-08-07T08:36:57.978Z,997.26
2022-08-07T08:38:01.542Z,997.23
2022-08-07T08:38:57.415Z,997.29
2022-08-07T08:39:58.736Z,997.28
2022-08-07T08:40:57.415Z,997.27
2022-08-07T08:41:59.517Z,997.24
2022-08-07T08:42:57.369Z,997.20
2022-08-07T08:43:59.108Z,997.22
2022-08-07T08:44:57.400Z,997.19
2022-08-07T08:46:00.868Z,997.18
2022-08-07T08:46:57.405Z,997.15
2022-08-07T08:47:57.484Z,997.21
2022-08-07T08:48:57.381Z,997.14
2022-08-07T08:50:05.008Z,997.15
2022-08-07T08:50:58.331Z,997.14
2022-08-07T08:52:14.480Z,997.22
2022-08-07T08:52:58.285Z,997.14
2022-08-07T08:53:57.339Z,997.17
2022-08-07T08:54:57.325Z,997.18
2022-08-07T08:55:59.229Z,997.16
2022-08-07T08:56:57.350Z,997.11
2022-08-07T08:57:58.267Z,997.12
2022-08-07T08:58:58.230Z,997.06
2022-08-07T08:59:57.435Z,997.05
2022-08-07T09:00:57.253Z,997.05
2022-08-07T09:01:58.437Z,996.99
2022-08-07T09:02:57.644Z,997.04
2022-08-07T09:03:58.225Z,997.08
2022-08-07T09:04:57.168Z,997.05
2022-08-07T09:05:57.188Z,996.99
2022-08-07T09:06:57.158Z,997.00
2022-08-07T09:07:57.617Z,996.97
2022-08-07T09:08:57.168Z,996.99
2022-08-07T09:09:57.441Z,996.90
2022-08-07T09:10:57.119Z,996.89
2022-08-07T09:12:02.809Z,996.97
2022-08-07T09:12:59.102Z,996.95
2022-08-07T09:13:57.091Z,996.96
2022-08-07T09:14:58.757Z,996.98
2022-08-07T09:16:21.764Z,996.92
2022-08-07T09:16:58.066Z,996.98
2022-08-07T09:18:01.436Z,996.95
2022-08-07T09:18:58.393Z,996.95
2022-08-07T09:19:57.049Z,996.91
2022-08-07T09:20:58.324Z,996.89
2022-08-07T09:22:09.682Z,996.88
2022-08-07T09:24:32.504Z,996.94
2022-08-07T09:24:33.846Z,996.85
2022-08-07T09:25:01.527Z,996.89
2022-08-07T09:25:58.056Z,996.87
2022-08-07T09:26:57.191Z,996.84
2022-08-07T09:28:00.028Z,996.77
2022-08-07T09:30:00.841Z,996.77
2022-08-07T09:30:05.360Z,996.85
2022-08-07T09:30:57.968Z,996.83
2022-08-07T09:31:56.934Z,996.93
2022-08-07T09:32:56.985Z,996.80
2022-08-07T09:33:58.226Z,996.81
2022-08-07T09:34:56.915Z,996.78
2022-08-07T09:36:03.403Z,996.77
2022-08-07T09:36:57.889Z,996.73
2022-08-07T09:37:56.890Z,996.80
2022-08-07T09:38:56.860Z,996.69
2022-08-07T09:39:57.911Z,996.71
2022-08-07T09:40:56.840Z,996.67
2022-08-07T09:41:59.146Z,996.69
2022-08-07T09:42:57.827Z,996.65
2022-08-07T09:44:06.287Z,996.67
2022-08-07T09:47:20.399Z,996.67
2022-08-07T09:47:24.875Z,996.70
2022-08-07T09:47:52.258Z,996.68
2022-08-07T09:48:02.812Z,996.68
2022-08-07T09:50:01.623Z,996.63
2022-08-07T09:50:18.861Z,996.67
2022-08-07T09:50:56.753Z,996.62
2022-08-07T09:52:10.428Z,996.63
2022-08-07T09:52:57.726Z,996.56
2022-08-07T09:54:00.596Z,996.60
2022-08-07T09:54:57.773Z,996.59
2022-08-07T09:56:04.409Z,996.59
2022-08-07T09:56:57.684Z,996.57
2022-08-07T09:57:56.688Z,996.56
2022-08-07T09:58:56.684Z,996.54
2022-08-07T10:00:00.613Z,996.50
2022-08-07T10:00:56.714Z,996.51
2022-08-07T10:01:56.644Z,996.44
2022-08-07T10:02:56.643Z,996.49
2022-08-07T10:04:05.692Z,996.45
2022-08-07T10:04:57.671Z,996.46
2022-08-07T10:05:59.822Z,996.46
2022-08-07T10:06:56.947Z,996.48
2022-08-07T10:07:57.124Z,996.33
2022-08-07T10:08:56.627Z,996.34
2022-08-07T10:10:00.196Z,996.40
2022-08-07T10:11:17.255Z,996.33
2022-08-07T10:12:01.579Z,996.29
2022-08-07T10:12:57.546Z,996.28
2022-08-07T10:14:01.827Z,996.17
2022-08-07T10:14:56.554Z,996.27
2022-08-07T10:15:56.518Z,996.33
2022-08-07T10:16:56.541Z,996.37
2022-08-07T10:18:01.012Z,996.19
2022-08-07T10:18:57.518Z,996.16
2022-08-07T10:19:56.525Z,996.18
2022-08-07T10:20:56.481Z,996.17
2022-08-07T10:22:16.282Z,996.21
2022-08-07T10:22:57.459Z,996.14
2022-08-07T10:24:06.442Z,996.15
2022-08-07T10:24:57.594Z,996.26
2022-08-07T10:25:56.426Z,996.21
2022-08-07T10:26:56.434Z,996.11
2022-08-07T10:27:56.416Z,996.12
2022-08-07T10:28:56.396Z,996.11
2022-08-07T10:29:56.421Z,996.12
2022-08-07T10:30:56.380Z,996.11
2022-08-07T10:31:56.371Z,996.07
2022-08-07T10:32:59.582Z,996.02
2022-08-07T10:34:06.351Z,996.13
2022-08-07T10:34:57.340Z,996.11
2022-08-07T10:36:08.225Z,995.99
2022-08-07T10:36:58.328Z,996.07
2022-08-07T10:38:09.724Z,996.03
2022-08-07T10:38:57.320Z,995.98
2022-08-07T10:39:57.496Z,996.01
2022-08-07T10:40:57.336Z,996.01
2022-08-07T10:42:09.131Z,996.03
2022-08-07T10:42:57.265Z,995.99
2022-08-07T10:44:02.279Z,995.92
2022-08-07T10:44:57.246Z,995.85
2022-08-07T10:45:58.028Z,995.96
2022-08-07T10:46:56.244Z,995.94
2022-08-07T10:48:02.776Z,995.93
2022-08-07T10:48:57.206Z,995.94
2022-08-07T10:49:56.231Z,995.82
2022-08-07T10:50:56.185Z,995.84
2022-08-07T10:52:01.507Z,995.84
2022-08-07T10:52:57.175Z,995.80
2022-08-07T10:54:00.148Z,995.89
2022-08-07T10:55:02.059Z,995.87
2022-08-07T10:55:56.146Z,995.80
2022-08-07T10:56:56.127Z,995.85
2022-08-07T10:57:56.564Z,995.74
2022-08-07T10:58:59.933Z,995.73
2022-08-07T10:59:56.092Z,995.74
2022-08-07T11:00:56.641Z,995.76
2022-08-07T11:02:04.814Z,995.76
2022-08-07T11:02:56.102Z,995.86
2022-08-07T11:04:11.027Z,995.86
2022-08-07T11:04:58.082Z,995.80
2022-08-07T11:05:56.039Z,995.78
2022-08-07T11:06:56.027Z,995.80
2022-08-07T11:07:59.150Z,995.78
2022-08-07T11:08:56.021Z,995.76
2022-08-07T11:10:09.504Z,995.76
2022-08-07T11:11:00.020Z,995.74
2022-08-07T11:11:59.143Z,995.67
2022-08-07T11:13:02.163Z,995.78
2022-08-07T11:14:44.867Z,995.69
2022-08-07T11:15:00.939Z,995.71
2022-08-07T11:15:55.953Z,995.72
2022-08-07T11:17:01.376Z,995.78
2022-08-07T11:17:56.916Z,995.72
2022-08-07T11:18:56.918Z,995.66
2022-08-07T11:19:55.907Z,995.67
2022-08-07T11:20:55.928Z,995.68
2022-08-07T11:21:55.883Z,995.71
2022-08-07T11:22:55.912Z,995.66
2022-08-07T11:23:55.883Z,995.60
2022-08-07T11:24:55.855Z,995.63
2022-08-07T11:25:55.863Z,995.58
2022-08-07T11:26:56.864Z,995.57
2022-08-07T11:28:03.222Z,995.52
2022-08-07T11:28:55.916Z,995.57
2022-08-07T11:30:18.060Z,995.57
2022-08-07T11:30:56.804Z,995.50
2022-08-07T11:31:55.815Z,995.57
2022-08-07T11:32:55.797Z,995.54
2022-08-07T11:34:00.249Z,995.48
2022-08-07T11:34:55.766Z,995.54
2022-08-07T11:35:59.494Z,995.45
2022-08-07T11:36:56.323Z,995.48
2022-08-07T11:37:57.937Z,995.48
2022-08-07T11:38:56.709Z,995.50
2022-08-07T11:40:00.341Z,995.42
2022-08-07T11:40:56.691Z,995.40
2022-08-07T11:42:02.327Z,995.45
2022-08-07T11:42:55.683Z,995.39
2022-08-07T11:44:12.544Z,995.36
2022-08-07T11:44:57.931Z,995.36
2022-08-07T11:45:55.645Z,995.36
2022-08-07T11:46:55.641Z,995.34
2022-08-07T11:47:59.395Z,995.33
2022-08-07T11:49:50.316Z,995.35
2022-08-07T11:50:30.756Z,995.32
2022-08-07T11:50:57.930Z,995.29
2022-08-07T11:51:55.592Z,995.35
2022-08-07T11:52:55.578Z,995.28
2022-08-07T11:54:00.547Z,995.29
2022-08-07T11:54:56.560Z,995.31
2022-08-07T11:56:25.568Z,995.31
2022-08-07T11:56:56.230Z,995.31
2022-08-07T11:58:00.718Z,995.24
2022-08-07T11:58:56.531Z,995.30
2022-08-07T12:00:12.183Z,995.32
2022-08-07T12:01:02.126Z,995.32
2022-08-07T12:01:59.337Z,995.23
2022-08-07T12:02:55.524Z,995.23
2022-08-07T12:03:55.522Z,995.19
2022-08-07T12:04:55.468Z,995.19
2022-08-07T12:05:58.232Z,995.21
2022-08-07T12:07:00.622Z,995.20
2022-08-07T12:08:03.678Z,995.16
2022-08-07T12:08:57.075Z,995.19
2022-08-07T12:09:55.441Z,995.25
2022-08-07T12:11:08.247Z,995.18
2022-08-07T12:12:09.597Z,995.15
2022-08-07T12:12:56.417Z,995.20
2022-08-07T12:13:55.386Z,995.20
2022-08-07T12:15:00.309Z,995.15
2022-08-07T12:16:05.663Z,995.11
2022-08-07T12:16:56.365Z,995.18
2022-08-07T12:17:59.672Z,995.11
2022-08-07T12:18:56.375Z,995.10
2022-08-07T12:20:03.178Z,995.09
2022-08-07T12:20:56.315Z,995.10
2022-08-07T12:22:38.437Z,995.14
2022-08-07T12:22:58.769Z,995.11
2022-08-07T12:24:06.651Z,995.10
2022-08-07T12:25:02.310Z,995.09
2022-08-07T12:26:03.249Z,995.09
2022-08-07T12:26:56.282Z,995.14
2022-08-07T12:28:10.058Z,995.17